createdAt,value
2017-05-31T00:00:01.234Z,8.17
2017-05-31T00:02:29.740Z,9.42
2017-05-31T00:04:58.282Z,9.22
2017-05-31T00:07:26.784Z,8.68
2017-05-31T00:09:55.328Z,7.97
2017-05-31T00:12:23.836Z,9.13
2017-05-31T00:14:52.349Z,8.78
2017-05-31T00:17:20.897Z,9.20
2017-05-31T00:19:49.396Z,8.10
2017-05-31T00:22:17.948Z,7.73
2017-05-31T00:24:46.457Z,7.97
2017-05-31T00:27:14.960Z,7.47
2017-05-31T00:29:43.500Z,8.03
2017-05-31T00:32:12.001Z,8.50
2017-05-31T00:34:40.543Z,6.93
2017-05-31T00:37:09.039Z,8.40
2017-05-31T00:39:37.566Z,7.58
2017-05-31T00:42:06.109Z,7.23
2017-05-31T00:44:34.613Z,6.88
2017-05-31T00:47:03.162Z,7.55
2017-05-31T00:49:31.672Z,9.22
2017-05-31T00:52:00.185Z,7.25
2017-05-31T00:54:28.725Z,9.72
2017-05-31T00:56:57.229Z,12.88
2017-05-31T00:59:25.781Z,11.00
2017-05-31T01:01:54.291Z,15.43
2017-05-31T01:04:22.804Z,14.42
2017-05-31T01:06:51.356Z,17.18
2017-05-31T01:09:19.868Z,15.90
2017-05-31T01:11:48.381Z,13.42
2017-05-31T01:14:16.928Z,12.72
2017-05-31T01:16:45.431Z,10.70
2017-05-31T01:19:13.972Z,11.15
2017-05-31T01:21:42.560Z,16.35
2017-05-31T01:24:11.085Z,17.93
2017-05-31T01:26:39.604Z,16.95
2017-05-31T01:29:08.144Z,12.33
2017-05-31T01:31:36.647Z,13.25
2017-05-31T01:34:05.186Z,14.23
2017-05-31T01:36:33.740Z,15.18
2017-05-31T01:39:02.246Z,14.05
2017-05-31T01:41:30.765Z,14.83
2017-05-31T01:43:59.308Z,12.22
2017-05-31T01:46:27.822Z,13.75
2017-05-31T01:48:56.363Z,16.15
2017-05-31T01:51:24.914Z,16.28
2017-05-31T01:53:53.428Z,16.52
2017-05-31T01:56:21.989Z,15.70
2017-05-31T01:58:50.532Z,18.07
2017-05-31T02:01:19.044Z,19.27
2017-05-31T02:03:47.596Z,19.18
2017-05-31T02:06:16.103Z,18.68
2017-05-31T02:08:44.652Z,22.05
2017-05-31T02:11:13.155Z,23.52
2017-05-31T02:13:41.695Z,19.97
2017-05-31T02:16:10.236Z,18.57
2017-05-31T02:18:38.744Z,23.47
2017-05-31T02:21:07.316Z,20.68
2017-05-31T02:23:35.823Z,17.67
2017-05-31T02:26:04.327Z,20.17
2017-05-31T02:28:32.868Z,15.47
2017-05-31T02:31:01.402Z,17.77
2017-05-31T02:33:29.948Z,18.12
2017-05-31T02:35:58.460Z,18.30
2017-05-31T02:38:27.008Z,17.57
2017-05-31T02:40:55.519Z,12.35
2017-05-31T02:43:24.033Z,12.92
2017-05-31T02:45:52.582Z,14.00
2017-05-31T02:48:21.091Z,16.75
2017-05-31T02:50:49.652Z,12.15
2017-05-31T02:53:18.163Z,10.87
2017-05-31T02:55:46.660Z,9.78
2017-05-31T02:58:15.218Z,10.72
2017-05-31T03:00:43.720Z,9.55
2017-05-31T03:03:12.278Z,9.18
2017-05-31T03:05:40.783Z,9.50
2017-05-31T03:08:09.283Z,9.88
2017-05-31T03:10:37.819Z,10.40
2017-05-31T03:13:06.329Z,8.33
2017-05-31T03:15:34.875Z,10.12
2017-05-31T03:18:03.372Z,9.35
2017-05-31T03:20:31.883Z,11.32
2017-05-31T03:23:00.415Z,7.32
2017-05-31T03:25:28.912Z,7.67
2017-05-31T03:27:57.465Z,11.92
2017-05-31T03:30:25.969Z,12.87
2017-05-31T03:32:54.473Z,9.90
2017-05-31T03:35:23.018Z,10.95
2017-05-31T03:37:51.522Z,9.95
2017-05-31T03:40:20.078Z,20.38
2017-05-31T03:42:48.604Z,13.62
2017-05-31T03:45:17.109Z,9.82
2017-05-31T03:47:45.659Z,12.32
2017-05-31T03:50:14.172Z,11.90
2017-05-31T03:52:42.724Z,11.02
2017-05-31T03:55:11.231Z,11.53
2017-05-31T03:57:39.741Z,10.65
2017-05-31T04:00:08.286Z,11.88
2017-05-31T04:02:36.793Z,15.63
2017-05-31T04:05:05.345Z,14.80
2017-05-31T04:07:33.856Z,25.08
2017-05-31T04:10:02.384Z,15.42
2017-05-31T04:12:33.732Z,13.00
2017-05-31T04:15:02.246Z,13.98
2017-05-31T04:17:31.665Z,14.90
2017-05-31T04:20:00.185Z,13.97
2017-05-31T04:22:28.698Z,13.43
2017-05-31T04:24:57.240Z,15.37
2017-05-31T04:27:25.753Z,15.82
2017-05-31T04:29:54.299Z,15.68
2017-05-31T04:32:22.815Z,15.25
2017-05-31T04:34:51.430Z,14.73
2017-05-31T04:37:19.986Z,13.93
2017-05-31T04:39:48.492Z,14.23
2017-05-31T04:42:17.046Z,15.95
2017-05-31T04:44:45.729Z,15.92
2017-05-31T04:47:14.241Z,15.58
2017-05-31T04:49:42.788Z,16.48
2017-05-31T04:52:11.300Z,18.43
2017-05-31T04:54:39.851Z,16.62
2017-05-31T04:57:08.987Z,15.02
2017-05-31T04:59:37.518Z,18.68
2017-05-31T05:02:06.059Z,17.85
2017-05-31T05:04:34.563Z,19.87
2017-05-31T05:07:03.112Z,19.65
2017-05-31T05:09:31.624Z,19.88
2017-05-31T05:12:00.292Z,19.98
2017-05-31T05:14:28.933Z,17.42
2017-05-31T05:16:57.504Z,20.28
2017-05-31T05:19:26.057Z,15.47
2017-05-31T05:21:54.565Z,17.50
2017-05-31T05:24:23.076Z,15.67
2017-05-31T05:26:51.612Z,17.37
2017-05-31T05:29:20.132Z,15.45
2017-05-31T05:31:48.685Z,17.77
2017-05-31T05:34:17.199Z,14.92
2017-05-31T05:36:45.759Z,15.53
2017-05-31T05:39:15.185Z,14.83
2017-05-31T05:41:43.696Z,12.67
2017-05-31T05:44:12.244Z,12.37
2017-05-31T05:46:40.759Z,14.05
2017-05-31T05:49:09.272Z,14.63
2017-05-31T05:51:37.817Z,13.67
2017-05-31T05:54:06.336Z,14.38
2017-05-31T05:56:34.884Z,13.30
2017-05-31T05:59:03.398Z,13.67
2017-05-31T06:01:31.909Z,11.15
2017-05-31T06:04:00.454Z,10.95
2017-05-31T06:06:28.965Z,13.55
2017-05-31T06:08:57.537Z,10.25
2017-05-31T06:11:26.059Z,8.92
2017-05-31T06:13:54.569Z,9.33
2017-05-31T06:16:23.128Z,9.67
2017-05-31T06:18:51.630Z,7.97
2017-05-31T06:21:20.177Z,10.60
2017-05-31T06:23:48.680Z,9.43
2017-05-31T06:26:17.192Z,10.37
2017-05-31T06:28:46.103Z,9.85
2017-05-31T06:31:14.976Z,8.27
2017-05-31T06:33:43.517Z,9.28
2017-05-31T06:36:12.026Z,9.27
2017-05-31T06:38:40.533Z,7.83
2017-05-31T06:41:09.065Z,8.87
2017-05-31T06:43:37.941Z,7.75
2017-05-31T06:46:06.485Z,8.77
2017-05-31T06:48:34.992Z,8.17
2017-05-31T06:51:03.496Z,8.05
2017-05-31T06:53:32.055Z,7.47
2017-05-31T06:56:00.593Z,9.08
2017-05-31T06:58:29.135Z,7.75
2017-05-31T07:00:57.645Z,6.83
2017-05-31T07:03:26.147Z,7.03
2017-05-31T07:05:54.675Z,7.45
2017-05-31T07:08:23.185Z,7.20
2017-05-31T07:10:51.729Z,7.98
2017-05-31T07:13:20.240Z,7.17
2017-05-31T07:15:48.756Z,8.75
2017-05-31T07:18:17.304Z,7.95
2017-05-31T07:20:45.825Z,10.43
2017-05-31T07:23:14.377Z,8.52
2017-05-31T07:25:42.881Z,8.78
2017-05-31T07:28:11.397Z,8.85
2017-05-31T07:30:39.937Z,8.68
2017-05-31T07:33:08.443Z,9.32
2017-05-31T07:35:36.989Z,8.95
2017-05-31T07:38:05.496Z,9.72
2017-05-31T07:40:34.005Z,10.04
2017-05-31T07:43:02.549Z,10.00
2017-05-31T07:45:31.060Z,9.42
2017-05-31T07:47:59.641Z,10.16
2017-05-31T07:50:28.152Z,10.32
2017-05-31T07:52:56.682Z,10.64
2017-05-31T07:55:25.237Z,11.60
2017-05-31T07:57:53.754Z,12.87
2017-05-31T08:00:22.310Z,13.85
2017-05-31T08:02:50.820Z,13.80
2017-05-31T08:05:19.341Z,13.38
2017-05-31T08:07:47.888Z,12.78
2017-05-31T08:10:16.395Z,14.02
2017-05-31T08:12:44.952Z,14.47
2017-05-31T08:15:13.485Z,14.08
2017-05-31T08:17:41.996Z,12.05
2017-05-31T08:20:10.537Z,11.25
2017-05-31T08:22:39.077Z,13.73
2017-05-31T08:25:07.627Z,12.30
2017-05-31T08:27:36.150Z,14.32
2017-05-31T08:30:04.672Z,13.30
2017-05-31T08:32:33.211Z,11.63
2017-05-31T08:35:01.719Z,11.22
2017-05-31T08:37:30.273Z,10.28
2017-05-31T08:39:58.783Z,13.27
2017-05-31T08:42:27.288Z,9.82
2017-05-31T08:44:55.836Z,10.98
2017-05-31T08:47:24.353Z,10.10
2017-05-31T08:49:52.917Z,10.72
2017-05-31T08:52:21.421Z,9.08
2017-05-31T08:54:49.934Z,10.84
2017-05-31T08:57:18.473Z,12.02
2017-05-31T08:59:46.987Z,12.75
2017-05-31T09:02:15.535Z,10.87
2017-05-31T09:04:44.052Z,11.75
2017-05-31T09:07:12.561Z,11.32
2017-05-31T09:09:41.112Z,12.52
2017-05-31T09:12:09.631Z,14.33
2017-05-31T09:14:38.189Z,12.43
2017-05-31T09:17:06.717Z,13.75
2017-05-31T09:19:35.225Z,14.60
2017-05-31T09:22:03.768Z,14.25
2017-05-31T09:24:32.284Z,12.98
2017-05-31T09:27:00.837Z,14.35
2017-05-31T09:29:29.354Z,15.50
2017-05-31T09:31:57.872Z,13.15
2017-05-31T09:34:26.414Z,12.22
2017-05-31T09:36:54.920Z,13.65
2017-05-31T09:39:23.672Z,14.05
2017-05-31T09:41:52.178Z,12.63
2017-05-31T09:44:20.691Z,14.10
2017-05-31T09:46:49.233Z,13.65
2017-05-31T09:49:17.740Z,13.17
2017-05-31T09:51:46.290Z,12.67
2017-05-31T09:54:14.801Z,14.25
2017-05-31T09:56:43.307Z,13.02
2017-05-31T09:59:11.869Z,14.37
2017-05-31T10:01:40.381Z,14.78
2017-05-31T10:04:08.930Z,15.40
2017-05-31T10:06:37.444Z,14.17
2017-05-31T10:09:05.953Z,13.43
2017-05-31T10:11:34.500Z,11.75
2017-05-31T10:14:03.015Z,11.95
2017-05-31T10:16:31.581Z,10.98
2017-05-31T10:19:00.115Z,10.12
2017-05-31T10:21:28.672Z,8.75
2017-05-31T10:23:57.214Z,8.73
2017-05-31T10:26:25.723Z,8.43
2017-05-31T10:28:54.281Z,11.23
2017-05-31T10:31:22.801Z,9.40
2017-05-31T10:33:51.312Z,9.50
2017-05-31T10:36:19.854Z,10.28
2017-05-31T10:38:48.367Z,9.68
2017-05-31T10:41:16.913Z,9.33
2017-05-31T10:43:45.446Z,8.95
2017-05-31T10:46:13.948Z,11.38
2017-05-31T10:48:42.481Z,8.43
2017-05-31T10:51:10.983Z,7.38
2017-05-31T10:53:39.541Z,10.00
2017-05-31T10:56:08.054Z,7.58
2017-05-31T10:58:36.557Z,6.65
2017-05-31T11:01:05.096Z,7.42
2017-05-31T11:03:33.601Z,7.15
2017-05-31T11:06:02.145Z,6.57
2017-05-31T11:08:30.649Z,8.05
2017-05-31T11:10:59.156Z,12.45
2017-05-31T11:13:27.689Z,8.27
2017-05-31T11:15:56.194Z,8.33
2017-05-31T11:18:24.738Z,8.63
2017-05-31T11:20:53.240Z,7.72
2017-05-31T11:23:21.740Z,7.73
2017-05-31T11:25:50.276Z,8.77
2017-05-31T11:28:18.804Z,7.35
2017-05-31T11:30:47.353Z,6.97
2017-05-31T11:33:15.903Z,7.52
2017-05-31T11:35:44.404Z,7.18
2017-05-31T11:38:12.937Z,7.70
2017-05-31T11:40:41.443Z,7.18
2017-05-31T11:43:09.976Z,7.05
2017-05-31T11:45:38.491Z,7.18
2017-05-31T11:48:07.037Z,6.93
2017-05-31T11:50:35.546Z,5.90
2017-05-31T11:53:04.050Z,5.08
2017-05-31T11:55:32.585Z,5.25
2017-05-31T11:58:01.087Z,5.90
2017-05-31T12:00:29.632Z,7.53
2017-05-31T12:02:58.140Z,4.95
2017-05-31T12:05:26.652Z,5.30
2017-05-31T12:07:55.188Z,7.77
2017-05-31T12:10:23.701Z,8.92
2017-05-31T12:12:52.240Z,6.15
2017-05-31T12:15:20.745Z,3.98
2017-05-31T12:17:49.249Z,7.23
2017-05-31T12:20:17.794Z,7.50
2017-05-31T12:22:46.294Z,4.65
2017-05-31T12:25:14.843Z,6.00
2017-05-31T12:27:43.348Z,4.40
2017-05-31T12:30:11.860Z,4.38
2017-05-31T12:32:40.392Z,7.77
2017-05-31T12:35:08.901Z,4.30
2017-05-31T12:37:37.440Z,4.92
2017-05-31T12:40:05.952Z,4.90
2017-05-31T12:42:34.464Z,4.72
2017-05-31T12:45:03.000Z,4.08
2017-05-31T12:47:31.511Z,3.92
2017-05-31T12:50:00.052Z,5.45
2017-05-31T12:52:28.561Z,4.58
2017-05-31T12:54:57.065Z,6.65
2017-05-31T12:57:25.660Z,4.70
2017-05-31T12:59:54.172Z,5.33
2017-05-31T13:02:22.744Z,3.83
2017-05-31T13:04:51.251Z,5.22
2017-05-31T13:07:19.757Z,5.97
2017-05-31T13:09:48.293Z,8.25
2017-05-31T13:12:16.800Z,4.43
2017-05-31T13:14:45.370Z,4.55
2017-05-31T13:17:13.872Z,8.33
2017-05-31T13:19:42.371Z,5.07
2017-05-31T13:22:10.908Z,4.05
2017-05-31T13:24:39.413Z,5.13
2017-05-31T13:27:07.960Z,6.47
2017-05-31T13:29:36.460Z,4.25
2017-05-31T13:32:04.966Z,5.37
2017-05-31T13:34:33.504Z,3.45
2017-05-31T13:37:02.007Z,3.80
2017-05-31T13:39:30.550Z,3.50
2017-05-31T13:41:59.060Z,3.95
2017-05-31T13:44:27.564Z,4.72
2017-05-31T13:46:56.100Z,3.42
2017-05-31T13:49:24.652Z,6.18
2017-05-31T13:51:53.196Z,4.73
2017-05-31T13:54:21.709Z,4.25
2017-05-31T13:56:50.211Z,4.33
2017-05-31T13:59:18.753Z,6.03
2017-05-31T14:01:47.260Z,3.03
2017-05-31T14:04:16.144Z,4.42
2017-05-31T14:06:44.652Z,3.72
2017-05-31T14:09:13.156Z,4.10
2017-05-31T14:11:41.693Z,3.60
2017-05-31T14:14:10.197Z,3.32
2017-05-31T14:16:38.746Z,3.73
2017-05-31T14:19:07.256Z,5.65
2017-05-31T14:21:35.768Z,4.58
2017-05-31T14:24:04.307Z,4.22
2017-05-31T14:26:32.819Z,3.77
2017-05-31T14:29:01.396Z,4.13
2017-05-31T14:31:29.895Z,4.25
2017-05-31T14:33:58.405Z,4.77
2017-05-31T14:36:26.943Z,9.70
2017-05-31T14:38:55.453Z,4.40
2017-05-31T14:41:24.013Z,3.55
2017-05-31T14:43:52.517Z,4.85
2017-05-31T14:46:21.070Z,4.48
2017-05-31T14:48:49.624Z,5.43
2017-05-31T14:51:18.127Z,5.98
2017-05-31T14:53:46.676Z,3.50
2017-05-31T14:56:15.185Z,4.02
2017-05-31T14:58:43.684Z,3.08
2017-05-31T15:01:12.226Z,2.78
2017-05-31T15:03:40.731Z,3.75
2017-05-31T15:06:09.276Z,3.35
2017-05-31T15:08:37.785Z,2.65
2017-05-31T15:11:06.297Z,4.87
2017-05-31T15:13:34.838Z,3.35
2017-05-31T15:16:03.341Z,4.95
2017-05-31T15:18:31.887Z,9.33
2017-05-31T15:21:00.388Z,2.72
2017-05-31T15:23:28.929Z,5.33
2017-05-31T15:25:57.465Z,4.28
2017-05-31T15:28:25.973Z,3.02
2017-05-31T15:30:54.549Z,4.23
2017-05-31T15:33:23.054Z,2.85
2017-05-31T15:35:51.560Z,3.45
2017-05-31T15:38:20.093Z,3.03
2017-05-31T15:40:48.599Z,3.33
2017-05-31T15:43:17.148Z,3.32
2017-05-31T15:45:45.654Z,3.25
2017-05-31T15:48:14.167Z,3.18
2017-05-31T15:50:42.709Z,4.28
2017-05-31T15:53:11.217Z,4.90
2017-05-31T15:55:39.759Z,5.08
2017-05-31T15:58:08.292Z,2.83
2017-05-31T16:00:36.797Z,3.37
2017-05-31T16:03:05.333Z,2.97
2017-05-31T16:05:33.844Z,2.72
2017-05-31T16:08:02.393Z,3.43
2017-05-31T16:10:30.902Z,5.08
2017-05-31T16:12:59.405Z,2.80
2017-05-31T16:15:27.943Z,3.08
2017-05-31T16:17:56.449Z,4.73
2017-05-31T16:20:24.993Z,4.92
2017-05-31T16:22:53.495Z,2.87
2017-05-31T16:25:22.001Z,3.07
2017-05-31T16:27:50.532Z,3.63
2017-05-31T16:30:19.042Z,4.32
2017-05-31T16:32:47.583Z,3.22
2017-05-31T16:35:16.093Z,2.77
2017-05-31T16:37:44.597Z,4.02
2017-05-31T16:40:13.130Z,2.77
2017-05-31T16:42:41.632Z,4.12
2017-05-31T16:45:10.173Z,4.20
2017-05-31T16:47:38.676Z,3.20
2017-05-31T16:50:07.176Z,3.22
2017-05-31T16:52:35.721Z,2.80
2017-05-31T16:55:04.221Z,3.98
2017-05-31T16:57:32.766Z,3.15
2017-05-31T17:00:01.296Z,4.68
2017-05-31T17:02:29.799Z,4.47
2017-05-31T17:04:58.333Z,5.48
2017-05-31T17:07:26.840Z,4.78
2017-05-31T17:09:55.388Z,3.97
2017-05-31T17:12:23.980Z,6.12
2017-05-31T17:14:52.483Z,3.92
2017-05-31T17:17:21.022Z,5.43
2017-05-31T17:19:49.519Z,3.88
2017-05-31T17:22:18.063Z,8.33
2017-05-31T17:24:46.576Z,5.80
2017-05-31T17:27:15.080Z,6.98
2017-05-31T17:29:43.628Z,4.45
2017-05-31T17:32:12.222Z,3.87
2017-05-31T17:34:40.762Z,3.77
2017-05-31T17:37:09.269Z,5.50
2017-05-31T17:39:37.793Z,6.22
2017-05-31T17:42:06.328Z,5.17
2017-05-31T17:44:34.836Z,4.73
2017-05-31T17:47:03.381Z,4.18
2017-05-31T17:49:32.159Z,4.80
2017-05-31T17:52:00.671Z,4.57
2017-05-31T17:54:29.211Z,4.62
2017-05-31T17:56:57.720Z,4.75
2017-05-31T17:59:26.263Z,4.30
2017-05-31T18:01:54.768Z,3.83
2017-05-31T18:04:23.277Z,5.53
2017-05-31T18:06:51.818Z,3.67
2017-05-31T18:09:20.332Z,4.32
2017-05-31T18:11:48.881Z,3.55
2017-05-31T18:14:17.386Z,3.18
2017-05-31T18:16:45.884Z,3.68
2017-05-31T18:19:14.422Z,7.12
2017-05-31T18:21:42.951Z,3.42
2017-05-31T18:24:11.497Z,4.73
2017-05-31T18:26:40.003Z,5.38
2017-05-31T18:29:08.524Z,4.57
2017-05-31T18:31:37.061Z,3.90
2017-05-31T18:34:05.574Z,4.57
2017-05-31T18:36:34.128Z,4.82
2017-05-31T18:39:02.633Z,4.67
2017-05-31T18:41:31.139Z,5.15
2017-05-31T18:43:59.876Z,4.00
2017-05-31T18:46:28.381Z,4.83
2017-05-31T18:48:56.937Z,7.02
2017-05-31T18:51:25.444Z,7.17
2017-05-31T18:53:53.952Z,4.22
2017-05-31T18:56:22.493Z,4.92
2017-05-31T18:58:51.001Z,5.43
2017-05-31T19:01:19.561Z,4.98
2017-05-31T19:03:47.315Z,4.75
2017-05-31T19:06:15.816Z,6.55
2017-05-31T19:08:44.836Z,5.50
2017-05-31T19:11:13.349Z,4.67
2017-05-31T19:13:41.891Z,5.03
2017-05-31T19:16:10.397Z,4.42
2017-05-31T19:18:38.903Z,4.10
2017-05-31T19:21:07.437Z,4.93
2017-05-31T19:23:35.943Z,3.85
2017-05-31T19:26:04.490Z,4.75
2017-05-31T19:28:34.001Z,4.00
2017-05-31T19:31:02.508Z,5.83
2017-05-31T19:33:31.045Z,6.18
2017-05-31T19:35:59.554Z,5.58
2017-05-31T19:38:28.100Z,5.32
2017-05-31T19:40:56.605Z,4.98
2017-05-31T19:43:25.118Z,9.12
2017-05-31T19:45:53.657Z,6.13
2017-05-31T19:48:22.168Z,5.58
2017-05-31T19:50:50.716Z,7.48
2017-05-31T19:53:19.222Z,8.23
2017-05-31T19:55:47.778Z,4.88
2017-05-31T19:58:16.317Z,6.08
2017-05-31T20:00:44.819Z,5.57
2017-05-31T20:03:13.364Z,5.58
2017-05-31T20:05:41.873Z,5.73
2017-05-31T20:08:10.382Z,6.65
2017-05-31T20:10:38.918Z,5.57
2017-05-31T20:13:07.429Z,5.98
2017-05-31T20:15:35.982Z,7.37
2017-05-31T20:18:04.489Z,5.80
2017-05-31T20:20:33.002Z,8.28
2017-05-31T20:23:01.539Z,6.73
2017-05-31T20:25:30.041Z,11.07
2017-05-31T20:27:58.585Z,5.23
2017-05-31T20:30:27.088Z,5.47
2017-05-31T20:32:55.587Z,6.30
2017-05-31T20:35:24.129Z,7.57
2017-05-31T20:37:52.644Z,7.98
2017-05-31T20:40:21.201Z,6.35
2017-05-31T20:42:49.705Z,5.55
2017-05-31T20:45:18.209Z,6.25
2017-05-31T20:47:46.783Z,7.02
2017-05-31T20:50:15.285Z,5.13
2017-05-31T20:52:43.835Z,5.12
2017-05-31T20:55:12.340Z,5.35
2017-05-31T20:57:40.844Z,5.68
2017-05-31T21:00:09.429Z,7.67
2017-05-31T21:02:37.949Z,6.95
2017-05-31T21:05:06.498Z,7.45
2017-05-31T21:07:35.009Z,8.87
2017-05-31T21:10:03.567Z,6.45
2017-05-31T21:12:32.100Z,5.80
2017-05-31T21:15:00.706Z,10.47
2017-05-31T21:17:29.249Z,5.88
2017-05-31T21:19:57.751Z,5.28
2017-05-31T21:22:26.262Z,8.02
2017-05-31T21:24:54.800Z,8.10
2017-05-31T21:27:23.307Z,9.75
2017-05-31T21:29:51.848Z,6.85
2017-05-31T21:32:20.356Z,6.57
2017-05-31T21:34:48.861Z,5.60
2017-05-31T21:37:17.463Z,8.68
2017-05-31T21:39:45.968Z,6.50
2017-05-31T21:42:14.509Z,6.47
2017-05-31T21:44:43.017Z,5.60
2017-05-31T21:47:11.524Z,6.38
2017-05-31T21:49:40.057Z,7.02
2017-05-31T21:52:08.569Z,6.45
2017-05-31T21:54:37.116Z,6.93
2017-05-31T21:57:05.623Z,7.07
2017-05-31T21:59:34.125Z,9.55
2017-05-31T22:02:02.661Z,6.40
2017-05-31T22:04:31.178Z,6.77
2017-05-31T22:06:59.728Z,7.08
2017-05-31T22:09:28.228Z,6.23
2017-05-31T22:11:56.792Z,6.77
2017-05-31T22:14:25.324Z,7.82
2017-05-31T22:16:53.825Z,6.92
2017-05-31T22:19:22.365Z,8.05
2017-05-31T22:21:50.877Z,8.20
2017-05-31T22:24:19.386Z,8.20
2017-05-31T22:26:47.921Z,6.35
2017-05-31T22:29:16.432Z,7.32
2017-05-31T22:31:44.981Z,9.55
2017-05-31T22:34:13.494Z,9.03
2017-05-31T22:36:42.004Z,10.27
2017-05-31T22:39:10.545Z,10.57
2017-05-31T22:41:39.060Z,11.40
2017-05-31T22:44:07.614Z,11.17
2017-05-31T22:46:36.123Z,11.25
2017-05-31T22:49:04.628Z,9.90
2017-05-31T22:51:33.163Z,10.10
2017-05-31T22:54:00.914Z,8.28
2017-05-31T22:56:29.456Z,8.88
2017-05-31T22:58:57.961Z,10.02
2017-05-31T23:01:26.463Z,9.93
2017-05-31T23:03:55.000Z,10.90
2017-05-31T23:06:23.509Z,9.68
2017-05-31T23:08:52.048Z,8.95
2017-05-31T23:11:20.554Z,10.50
2017-05-31T23:13:49.056Z,9.25
2017-05-31T23:16:17.590Z,9.67
2017-05-31T23:18:46.098Z,8.13
2017-05-31T23:21:14.645Z,9.67
2017-05-31T23:23:43.150Z,9.23
2017-05-31T23:26:11.660Z,10.90
2017-05-31T23:28:40.193Z,9.48
2017-05-31T23:31:08.705Z,10.43
2017-05-31T23:33:37.261Z,11.02
2017-05-31T23:36:05.765Z,8.93
2017-05-31T23:38:34.269Z,10.57
2017-05-31T23:41:02.809Z,10.67
2017-05-31T23:43:31.312Z,9.75
2017-05-31T23:46:00.062Z,11.20
2017-05-31T23:48:28.571Z,11.32
2017-05-31T23:50:57.080Z,10.73
2017-05-31T23:53:25.620Z,9.62
2017-05-31T23:55:54.134Z,10.82
2017-05-31T23:58:22.685Z,10.32
